Time;durP1;ratioP1;P1;durP2;ratioP2;P2;SDS_P1;SDS_P2;PMS_P1;PMS_P2;Temp;Humidity;BMP_temperature;BMP_pressure;BME280_temperature;BME280_humidity;BME280_pressure;Samples;Min_cycle;Max_cycle;Signal;HPM_P1;HPM_P2
2022/07/02 00:01:28;;;;;;;3.22;0.60;;;;;;;-148.56;100.00;61375.16;5006662;28;20641;-31
2022/07/02 00:03:56;;;;;;;0.85;0.70;;;;;;;-148.56;100.00;61375.16;5006931;28;20065;-31
2022/07/02 00:06:25;;;;;;;1.98;0.70;;;;;;;-148.56;100.00;61375.16;5004748;28;20040;-31
2022/07/02 00:08:50;;;;;;;3.78;0.90;;;;;;;-148.56;100.00;61375.16;5002115;28;20025;-32
2022/07/02 00:11:16;;;;;;;0.60;0.60;;;;;;;-148.56;100.00;61375.16;4997423;28;20471;-33
2022/07/02 00:13:41;;;;;;;0.85;0.63;;;;;;;-148.56;100.00;61375.16;4997879;28;20033;-30
2022/07/02 00:16:10;;;;;;;2.05;0.73;;;;;;;-148.56;100.00;61375.16;4999676;28;20025;-31
2022/07/02 00:18:36;;;;;;;1.83;0.80;;;;;;;-148.56;100.00;61375.16;4993696;28;20056;-33
2022/07/02 00:21:02;;;;;;;3.92;0.90;;;;;;;-148.56;100.00;61375.16;4997370;28;20037;-30
2022/07/02 00:23:28;;;;;;;2.67;1.02;;;;;;;-148.56;100.00;61375.16;4993987;28;20026;-37
2022/07/02 00:25:56;;;;;;;1.70;0.70;;;;;;;-148.56;100.00;61375.16;4993328;28;20714;-30
2022/07/02 00:28:23;;;;;;;1.30;0.70;;;;;;;-148.56;100.00;61375.16;4991680;28;20080;-34
2022/07/02 00:30:48;;;;;;;1.10;0.65;;;;;;;-148.56;100.00;61375.16;4996697;28;20046;-30
2022/07/02 00:33:14;;;;;;;1.00;0.70;;;;;;;-148.56;100.00;61375.16;4998275;28;20090;-33
2022/07/02 00:35:40;;;;;;;2.85;0.77;;;;;;;-148.56;100.00;61375.16;5001482;28;20028;-29
2022/07/02 00:38:06;;;;;;;6.03;0.70;;;;;;;-148.56;100.00;61375.16;4996197;28;20033;-36
2022/07/02 00:40:32;;;;;;;2.38;0.60;;;;;;;-148.56;100.00;61375.16;4994446;28;20119;-31
2022/07/02 00:42:57;;;;;;;1.98;0.85;;;;;;;-148.56;100.00;61375.16;4997926;28;20865;-33
2022/07/02 00:45:23;;;;;;;1.65;0.68;;;;;;;-148.56;100.00;61375.16;4977004;28;21020;-31
2022/07/02 00:47:48;;;;;;;1.27;0.68;;;;;;;-148.56;100.00;61375.16;4990270;28;20044;-31
2022/07/02 00:50:14;;;;;;;1.48;0.68;;;;;;;-148.56;100.00;61375.16;4991519;28;20087;-33
2022/07/02 00:52:39;;;;;;;1.80;0.68;;;;;;;-148.56;100.00;61375.16;4996362;28;20076;-30
2022/07/02 00:55:05;;;;;;;1.05;0.60;;;;;;;-148.56;100.00;61375.16;4994132;28;20037;-30
2022/07/02 00:57:31;;;;;;;1.20;0.63;;;;;;;-148.56;100.00;61375.16;5001715;28;20033;-33
2022/07/02 00:59:56;;;;;;;1.25;0.60;;;;;;;-148.56;100.00;61375.16;5001329;28;20064;-31
2022/07/02 01:02:22;;;;;;;1.50;0.60;;;;;;;-148.56;100.00;61375.16;4997023;28;20037;-30
2022/07/02 01:04:48;;;;;;;2.15;0.70;;;;;;;-148.56;100.00;61375.16;5003516;28;20780;-35
2022/07/02 01:07:13;;;;;;;1.77;0.80;;;;;;;-148.56;100.00;61375.16;5001522;28;20026;-33
2022/07/02 01:12:24;;;;;;;0.95;0.60;;;;;;;-148.56;100.00;61375.16;4992543;28;20064;-33
2022/07/02 01:14:50;;;;;;;1.77;0.80;;;;;;;-148.56;100.00;61375.16;4995634;28;20022;-30
2022/07/02 01:17:16;;;;;;;1.65;0.60;;;;;;;-148.56;100.00;61375.16;5000566;28;20120;-32
2022/07/02 01:19:41;;;;;;;2.70;0.80;;;;;;;-148.56;100.00;61375.16;4995569;28;20034;-30
2022/07/02 01:22:16;;;;;;;3.92;0.90;;;;;;;-148.56;100.00;61375.16;4996699;28;20040;-34
2022/07/02 01:24:43;;;;;;;2.63;0.80;;;;;;;-148.56;100.00;61375.16;4993005;28;20818;-30
2022/07/02 01:27:08;;;;;;;1.38;0.70;;;;;;;-148.56;100.00;61375.16;4991119;28;20061;-31
2022/07/02 01:29:33;;;;;;;1.52;0.82;;;;;;;-148.56;100.00;61375.16;4993294;28;20028;-34
2022/07/02 01:31:59;;;;;;;1.73;0.60;;;;;;;-148.56;100.00;61375.16;4996011;28;20108;-31
2022/07/02 01:34:24;;;;;;;2.33;0.70;;;;;;;-148.56;100.00;61375.16;4997541;28;20033;-32
2022/07/02 01:36:50;;;;;;;1.25;0.88;;;;;;;-148.56;100.00;61375.16;5002452;28;20014;-32
2022/07/02 01:39:15;;;;;;;2.90;0.95;;;;;;;-148.56;100.00;61375.16;4993245;28;20053;-32
2022/07/02 01:41:41;;;;;;;1.13;0.77;;;;;;;-148.56;100.00;61375.16;4996044;28;20044;-30
2022/07/02 01:44:07;;;;;;;2.28;0.80;;;;;;;-148.56;100.00;61375.16;4995261;28;20029;-34
2022/07/02 01:46:32;;;;;;;3.97;1.45;;;;;;;-148.56;100.00;61375.16;4995396;28;20668;-29
2022/07/02 01:48:58;;;;;;;2.38;0.88;;;;;;;-148.56;100.00;61375.16;4989694;28;20153;-33
2022/07/02 01:51:23;;;;;;;2.42;0.60;;;;;;;-148.56;100.00;61375.16;4990169;28;20040;-30
2022/07/02 01:53:49;;;;;;;2.70;0.80;;;;;;;-148.56;100.00;61375.16;4991942;28;20037;-30
2022/07/02 01:56:14;;;;;;;1.50;0.73;;;;;;;-148.56;100.00;61375.16;4992659;28;20037;-35
2022/07/02 01:58:39;;;;;;;2.72;0.90;;;;;;;-148.56;100.00;61375.16;4995986;28;20547;-38
2022/07/02 02:01:05;;;;;;;3.90;0.80;;;;;;;-148.56;100.00;61375.16;4994297;28;20049;-31
2022/07/02 02:03:30;;;;;;;2.88;0.95;;;;;;;-148.56;100.00;61375.16;4996065;28;20970;-31
2022/07/02 02:05:56;;;;;;;3.33;0.80;;;;;;;-148.56;100.00;61375.16;4993409;28;20034;-31
2022/07/02 02:08:21;;;;;;;0.80;0.70;;;;;;;-148.56;100.00;61375.16;4996743;28;20060;-34
2022/07/02 02:10:46;;;;;;;7.07;0.85;;;;;;;-148.56;100.00;61375.16;4990345;28;21106;-38
2022/07/02 02:13:12;;;;;;;1.27;0.75;;;;;;;-148.56;100.00;61375.16;4991176;28;20057;-35
2022/07/02 02:15:37;;;;;;;1.45;0.77;;;;;;;-148.56;100.00;61375.16;4993123;28;20029;-34
2022/07/02 02:18:03;;;;;;;2.65;0.70;;;;;;;-148.56;100.00;61375.16;4993208;28;20025;-34
2022/07/02 02:20:28;;;;;;;2.65;0.63;;;;;;;-148.56;100.00;61375.16;5000389;28;20033;-31
2022/07/02 02:22:53;;;;;;;5.20;0.90;;;;;;;-148.56;100.00;61375.16;4996911;28;20153;-31
2022/07/02 02:25:19;;;;;;;2.47;0.80;;;;;;;-148.56;100.00;61375.16;5000221;28;20842;-33
2022/07/02 02:27:44;;;;;;;2.65;0.80;;;;;;;-148.56;100.00;61375.16;5007005;28;20033;-33
2022/07/02 02:30:10;;;;;;;1.10;0.60;;;;;;;-148.56;100.00;61375.16;4998009;28;20128;-37
2022/07/02 02:32:36;;;;;;;1.92;0.70;;;;;;;-148.56;100.00;61375.16;4994925;28;20026;-32
2022/07/02 02:35:03;;;;;;;5.25;0.90;;;;;;;-148.56;100.00;61375.16;5000756;28;20058;-31
2022/07/02 02:37:29;;;;;;;1.50;0.80;;;;;;;-148.56;100.00;61375.16;4996749;28;20030;-30
2022/07/02 02:39:54;;;;;;;2.97;0.77;;;;;;;-148.56;100.00;61375.16;4991250;28;20060;-32
2022/07/02 02:42:19;;;;;;;5.60;0.73;;;;;;;-148.56;100.00;61375.16;4987502;28;20741;-36
2022/07/02 02:44:45;;;;;;;1.95;0.65;;;;;;;-148.56;100.00;61375.16;4993650;28;20064;-30
2022/07/02 02:47:10;;;;;;;1.33;0.73;;;;;;;-148.56;100.00;61375.16;5004544;28;20041;-33
2022/07/02 02:49:36;;;;;;;1.30;0.80;;;;;;;-148.56;100.00;61375.16;5004265;28;20052;-33
2022/07/02 02:52:01;;;;;;;2.90;0.90;;;;;;;-148.56;100.00;61375.16;4988677;28;21791;-38
2022/07/02 02:54:26;;;;;;;3.22;1.00;;;;;;;-148.56;100.00;61375.16;4995503;28;20037;-35
2022/07/02 02:56:52;;;;;;;1.75;0.80;;;;;;;-148.56;100.00;61375.16;4999722;28;20032;-33
2022/07/02 02:59:17;;;;;;;4.22;0.77;;;;;;;-148.56;100.00;61375.16;4993824;28;20518;-33
2022/07/02 03:01:42;;;;;;;4.68;0.70;;;;;;;-148.56;100.00;61375.16;4993741;28;20049;-33
2022/07/02 03:04:08;;;;;;;3.15;0.90;;;;;;;-148.56;100.00;61375.16;4995993;28;20021;-31
2022/07/02 03:06:33;;;;;;;5.88;1.20;;;;;;;-148.56;100.00;61375.16;4994736;28;20056;-30
2022/07/02 03:08:59;;;;;;;4.60;0.90;;;;;;;-148.56;100.00;61375.16;4995524;28;20482;-30
2022/07/02 03:11:24;;;;;;;2.40;0.90;;;;;;;-148.56;100.00;61375.16;4992102;28;20157;-35
2022/07/02 03:13:50;;;;;;;5.22;0.88;;;;;;;-148.56;100.00;61375.16;4995357;28;20491;-34
2022/07/02 03:16:15;;;;;;;7.45;1.08;;;;;;;-148.56;100.00;61375.16;4990548;28;20645;-33
2022/07/02 03:18:40;;;;;;;5.00;1.10;;;;;;;-148.56;100.00;61375.16;4995628;28;20033;-31
2022/07/02 03:21:06;;;;;;;1.95;0.77;;;;;;;-148.56;100.00;61375.16;4998901;28;20026;-33
2022/07/02 03:23:31;;;;;;;2.58;0.70;;;;;;;-148.56;100.00;61375.16;5004788;28;20025;-32
2022/07/02 03:25:57;;;;;;;2.38;0.60;;;;;;;-148.56;100.00;61375.16;5004934;28;20056;-30
2022/07/02 03:28:22;;;;;;;2.95;0.70;;;;;;;-148.56;100.00;61375.16;4999911;28;20034;-32
2022/07/02 03:30:47;;;;;;;1.73;0.68;;;;;;;-148.56;100.00;61375.16;5001761;28;21570;-31
2022/07/02 03:33:13;;;;;;;3.75;0.80;;;;;;;-148.56;100.00;61375.16;4999975;28;20029;-30
2022/07/02 03:35:38;;;;;;;2.47;0.80;;;;;;;-148.56;100.00;61375.16;4999983;28;20026;-32
2022/07/02 03:38:04;;;;;;;4.55;1.00;;;;;;;-148.56;100.00;61375.16;5001554;28;20041;-30
2022/07/02 03:40:31;;;;;;;2.67;0.80;;;;;;;-148.56;100.00;61375.16;5000224;28;20064;-32
2022/07/02 03:42:56;;;;;;;2.70;0.90;;;;;;;-148.56;100.00;61375.16;5000410;28;20083;-36
2022/07/02 03:45:21;;;;;;;2.85;0.90;;;;;;;-148.56;100.00;61375.16;4996832;28;20496;-31
2022/07/02 03:47:47;;;;;;;5.63;0.90;;;;;;;-148.56;100.00;61375.16;5006628;28;20087;-30
2022/07/02 03:50:13;;;;;;;2.80;0.93;;;;;;;-148.56;100.00;61375.16;5007244;28;20758;-31
2022/07/02 03:52:39;;;;;;;2.50;0.73;;;;;;;-148.56;100.00;61375.16;4992163;28;20133;-33
2022/07/02 03:55:06;;;;;;;1.75;0.80;;;;;;;-148.56;100.00;61375.16;4990432;28;20116;-30
2022/07/02 03:57:31;;;;;;;5.68;1.00;;;;;;;-148.56;100.00;61375.16;4992538;28;20036;-35
2022/07/02 03:59:57;;;;;;;3.00;0.70;;;;;;;-148.56;100.00;61375.16;4999117;28;20025;-29
2022/07/02 04:02:22;;;;;;;4.78;0.80;;;;;;;-148.56;100.00;61375.16;4996511;28;20036;-33
2022/07/02 04:04:48;;;;;;;4.45;0.95;;;;;;;-148.56;100.00;61375.16;4993393;28;20757;-34
2022/07/02 04:07:14;;;;;;;4.25;0.85;;;;;;;-148.56;100.00;61375.16;4997646;28;20021;-31
2022/07/02 04:09:39;;;;;;;2.15;0.75;;;;;;;-148.56;100.00;61375.16;4992633;28;20040;-31
2022/07/02 04:12:05;;;;;;;3.63;0.73;;;;;;;-148.56;100.00;61375.16;4996414;28;20072;-34
2022/07/02 04:14:30;;;;;;;2.47;0.60;;;;;;;-148.56;100.00;61375.16;4994130;28;20068;-31
2022/07/02 04:16:55;;;;;;;4.45;0.90;;;;;;;-148.56;100.00;61375.16;4991777;28;20028;-29
2022/07/02 04:19:21;;;;;;;4.40;0.70;;;;;;;-148.56;100.00;61375.16;4995634;28;21000;-29
2022/07/02 04:21:46;;;;;;;2.80;0.68;;;;;;;-148.56;100.00;61375.16;4999507;28;20045;-31
2022/07/02 04:24:12;;;;;;;2.08;0.77;;;;;;;-148.56;100.00;61375.16;5000782;28;20057;-29
2022/07/02 04:26:37;;;;;;;1.77;0.70;;;;;;;-148.56;100.00;61375.16;4997296;28;20033;-29
2022/07/02 04:29:03;;;;;;;2.10;0.70;;;;;;;-148.56;100.00;61375.16;5000482;28;20028;-30
2022/07/02 04:31:28;;;;;;;2.47;0.80;;;;;;;-148.56;100.00;61375.16;4993205;28;20924;-32
2022/07/02 04:33:53;;;;;;;1.40;0.88;;;;;;;-148.56;100.00;61375.16;4997899;28;20048;-30
2022/07/02 04:36:19;;;;;;;1.52;0.60;;;;;;;-148.56;100.00;61375.16;5002847;28;20042;-33
2022/07/02 04:38:44;;;;;;;1.83;0.65;;;;;;;-148.56;100.00;61375.16;5000378;28;20029;-31
2022/07/02 04:41:10;;;;;;;3.63;0.77;;;;;;;-148.56;100.00;61375.16;5001120;28;20029;-29
2022/07/02 04:43:35;;;;;;;1.40;0.73;;;;;;;-148.56;100.00;61375.16;4991207;28;20033;-31
2022/07/02 04:46:00;;;;;;;1.30;0.63;;;;;;;-148.56;100.00;61375.16;4995059;28;20044;-31
2022/07/02 04:48:26;;;;;;;1.17;0.82;;;;;;;-148.56;100.00;61375.16;5005219;28;20032;-30
2022/07/02 04:50:51;;;;;;;2.80;0.82;;;;;;;-148.56;100.00;61375.16;5015890;28;20022;-34
2022/07/02 04:53:17;;;;;;;3.35;0.90;;;;;;;-148.56;100.00;61375.16;4995625;28;20038;-30
2022/07/02 04:55:42;;;;;;;3.58;0.80;;;;;;;-148.56;100.00;61375.16;4997954;28;20033;-30
2022/07/02 04:58:08;;;;;;;3.72;0.90;;;;;;;-148.56;100.00;61375.16;4997440;28;20033;-32
2022/07/02 05:00:33;;;;;;;3.25;0.93;;;;;;;-148.56;100.00;61375.16;4999073;28;20025;-31
2022/07/02 05:02:59;;;;;;;3.42;0.75;;;;;;;-148.56;100.00;61375.16;5001992;28;20484;-36
2022/07/02 05:05:25;;;;;;;3.08;1.00;;;;;;;-148.56;100.00;61375.16;4998530;28;20041;-30
2022/07/02 05:07:50;;;;;;;3.08;0.95;;;;;;;-148.56;100.00;61375.16;4999658;28;20021;-30
2022/07/02 05:10:15;;;;;;;3.42;0.90;;;;;;;-148.56;100.00;61375.16;4994395;28;20045;-32
2022/07/02 05:12:41;;;;;;;3.95;0.80;;;;;;;-148.56;100.00;61375.16;5004287;28;20033;-29
2022/07/02 05:15:07;;;;;;;2.30;0.80;;;;;;;-148.56;100.00;61375.16;5001443;28;20599;-34
2022/07/02 05:17:32;;;;;;;1.85;0.68;;;;;;;-148.56;100.00;61375.16;5002859;28;20653;-29
2022/07/02 05:19:57;;;;;;;3.80;1.00;;;;;;;-148.56;100.00;61375.16;4989940;28;20033;-32
2022/07/02 05:22:23;;;;;;;1.88;0.73;;;;;;;-148.56;100.00;61375.16;4997318;28;20613;-35
2022/07/02 05:24:48;;;;;;;4.55;0.93;;;;;;;-148.56;100.00;61375.16;4993957;28;20049;-32
2022/07/02 05:27:14;;;;;;;2.70;0.88;;;;;;;-148.56;100.00;61375.16;4999871;28;20148;-35
2022/07/02 05:29:39;;;;;;;3.75;0.77;;;;;;;-148.56;100.00;61375.16;5002053;28;20037;-30
2022/07/02 05:32:05;;;;;;;4.00;0.70;;;;;;;-148.56;100.00;61375.16;4997808;28;20115;-29
2022/07/02 05:34:30;;;;;;;3.90;0.80;;;;;;;-148.56;100.00;61375.16;4991250;28;20163;-33
2022/07/02 05:36:56;;;;;;;1.25;0.70;;;;;;;-148.56;100.00;61375.16;4998324;28;20034;-31
2022/07/02 05:39:21;;;;;;;3.25;0.80;;;;;;;-148.56;100.00;61375.16;4999260;28;20083;-36
2022/07/02 05:41:46;;;;;;;3.22;1.10;;;;;;;-148.56;100.00;61375.16;4997210;28;20318;-33
2022/07/02 05:44:12;;;;;;;2.50;0.98;;;;;;;-148.56;100.00;61375.16;4999556;28;20763;-35
2022/07/02 05:46:37;;;;;;;2.55;0.85;;;;;;;-148.56;100.00;61375.16;5000932;28;20876;-31
2022/07/02 05:49:03;;;;;;;2.25;0.82;;;;;;;-148.56;100.00;61375.16;5001778;28;20033;-32
2022/07/02 05:51:28;;;;;;;2.65;0.90;;;;;;;-148.56;100.00;61375.16;5000119;28;20678;-31
2022/07/02 05:53:53;;;;;;;5.07;1.00;;;;;;;-148.56;100.00;61375.16;4996193;28;20057;-32
2022/07/02 05:56:19;;;;;;;3.30;1.10;;;;;;;-148.56;100.00;61375.16;4997825;28;20045;-31
2022/07/02 05:58:44;;;;;;;2.75;0.93;;;;;;;-148.56;100.00;61375.16;5006763;28;20918;-30
2022/07/02 06:01:10;;;;;;;1.27;0.57;;;;;;;-148.56;100.00;61375.16;5000801;28;20094;-36
2022/07/02 06:03:35;;;;;;;6.03;0.85;;;;;;;-148.56;100.00;61375.16;5005582;28;20088;-33
2022/07/02 06:08:58;;;;;;;1.10;0.73;;;;;;;-148.56;100.00;61375.16;4994831;28;20045;-34
2022/07/02 06:11:24;;;;;;;1.95;0.77;;;;;;;-148.56;100.00;61375.16;5005312;28;20052;-31
2022/07/02 06:13:49;;;;;;;3.17;0.85;;;;;;;-148.56;100.00;61375.16;5001203;28;20040;-38
2022/07/02 06:16:14;;;;;;;1.23;0.68;;;;;;;-148.56;100.00;61375.16;5001317;28;20041;-34
2022/07/02 06:18:40;;;;;;;2.40;0.60;;;;;;;-148.56;100.00;61375.16;4998476;28;20029;-35
2022/07/02 06:21:05;;;;;;;1.60;0.70;;;;;;;-148.56;100.00;61375.16;5000301;28;20041;-32
2022/07/02 06:23:30;;;;;;;3.08;0.70;;;;;;;-148.56;100.00;61375.16;4999123;28;20552;-32
2022/07/02 06:25:56;;;;;;;1.48;0.60;;;;;;;-148.56;100.00;61375.16;5004088;28;20026;-32
2022/07/02 06:28:21;;;;;;;2.20;0.80;;;;;;;-148.56;100.00;61375.16;5008117;28;20021;-30
2022/07/02 06:30:47;;;;;;;1.35;0.70;;;;;;;-148.56;100.00;61375.16;5003581;28;20030;-33
2022/07/02 06:33:12;;;;;;;1.80;0.77;;;;;;;-148.56;100.00;61375.16;4995994;28;20400;-32
2022/07/02 06:35:40;;;;;;;2.50;0.60;;;;;;;-148.56;100.00;61375.16;5002186;28;20979;-31
2022/07/02 06:38:06;;;;;;;1.45;0.65;;;;;;;-148.56;100.00;61375.16;5009350;28;20109;-30
2022/07/02 06:40:32;;;;;;;4.03;0.80;;;;;;;-148.56;100.00;61375.16;5002453;28;20046;-30
2022/07/02 06:42:57;;;;;;;3.70;1.20;;;;;;;-148.56;100.00;61375.16;4999237;28;20031;-30
2022/07/02 06:45:23;;;;;;;9.43;1.63;;;;;;;-148.56;100.00;61375.16;5005602;28;20037;-33
2022/07/02 06:47:48;;;;;;;6.72;1.60;;;;;;;-148.56;100.00;61375.16;5001262;28;20092;-30
2022/07/02 06:50:16;;;;;;;3.35;1.50;;;;;;;-148.56;100.00;61375.16;4993623;28;20041;-31
2022/07/02 06:52:44;;;;;;;1.73;1.10;;;;;;;-148.56;100.00;61375.16;4992709;28;20038;-30
2022/07/02 06:55:09;;;;;;;3.25;1.40;;;;;;;-148.56;100.00;61375.16;4998306;28;20163;-28
2022/07/02 06:57:35;;;;;;;2.35;1.10;;;;;;;-148.56;100.00;61375.16;5004472;28;20049;-31
2022/07/02 07:00:00;;;;;;;3.10;1.13;;;;;;;-148.56;100.00;61375.16;5000504;28;20033;-31
2022/07/02 07:02:26;;;;;;;2.13;0.93;;;;;;;-148.56;100.00;61375.16;5001502;28;20040;-31
2022/07/02 07:04:51;;;;;;;3.20;0.90;;;;;;;-148.56;100.00;61375.16;5001569;28;20040;-30
2022/07/02 07:07:18;;;;;;;3.15;1.00;;;;;;;-148.56;100.00;61375.16;4995198;28;20044;-33
2022/07/02 07:09:43;;;;;;;1.33;0.65;;;;;;;-148.56;100.00;61375.16;5003765;28;20761;-32
2022/07/02 07:12:09;;;;;;;2.53;1.00;;;;;;;-148.56;100.00;61375.16;5001810;28;20083;-31
2022/07/02 07:14:34;;;;;;;1.70;0.60;;;;;;;-148.56;100.00;61375.16;5000917;28;20034;-31
2022/07/02 07:17:00;;;;;;;3.05;0.77;;;;;;;-148.56;100.00;61375.16;5001285;28;20032;-30
2022/07/02 07:19:26;;;;;;;1.25;0.77;;;;;;;-148.56;100.00;61375.16;5001865;28;20037;-32
2022/07/02 07:21:51;;;;;;;1.05;0.60;;;;;;;-148.56;100.00;61375.16;5002849;28;20100;-32
2022/07/02 07:24:17;;;;;;;1.70;0.70;;;;;;;-148.56;100.00;61375.16;5005967;28;20617;-30
2022/07/02 07:26:42;;;;;;;1.52;0.80;;;;;;;-148.56;100.00;61375.16;5001482;28;20025;-30
2022/07/02 07:29:07;;;;;;;8.88;0.60;;;;;;;-148.56;100.00;61375.16;4981608;28;20029;-31
2022/07/02 07:31:33;;;;;;;1.50;0.80;;;;;;;-148.56;100.00;61375.16;4985312;28;20894;-31
2022/07/02 07:33:59;;;;;;;1.73;0.85;;;;;;;-148.56;100.00;61375.16;4982984;28;21300;-30
2022/07/02 07:36:25;;;;;;;1.25;0.73;;;;;;;-148.56;100.00;61375.16;4988195;28;20033;-31
2022/07/02 07:38:51;;;;;;;1.17;0.60;;;;;;;-148.56;100.00;61375.16;4985647;28;20060;-29
2022/07/02 07:41:16;;;;;;;1.17;0.68;;;;;;;-148.56;100.00;61375.16;4985553;28;20038;-30
2022/07/02 07:43:42;;;;;;;1.52;0.68;;;;;;;-148.56;100.00;61375.16;4983379;28;20030;-30
2022/07/02 07:46:07;;;;;;;3.05;0.70;;;;;;;-148.56;100.00;61375.16;4982638;28;20037;-30
2022/07/02 07:48:33;;;;;;;3.95;0.60;;;;;;;-148.56;100.00;61375.16;4985478;28;20972;-29
2022/07/02 07:50:59;;;;;;;2.85;0.60;;;;;;;-148.56;100.00;61375.16;4982151;28;20299;-30
2022/07/02 07:53:24;;;;;;;2.08;0.82;;;;;;;-148.56;100.00;61375.16;4986618;28;20083;-30
2022/07/02 07:55:50;;;;;;;0.98;0.55;;;;;;;-148.56;100.00;61375.16;4985368;28;21275;-30
2022/07/02 07:58:15;;;;;;;2.83;0.60;;;;;;;-148.56;100.00;61375.16;4985968;28;20864;-29
2022/07/02 08:00:41;;;;;;;1.67;0.70;;;;;;;-148.56;100.00;61375.16;4983432;28;20073;-30
2022/07/02 08:03:06;;;;;;;2.33;0.60;;;;;;;-148.56;100.00;61375.16;4986562;28;20082;-31
2022/07/02 08:05:32;;;;;;;0.85;0.50;;;;;;;-148.56;100.00;61375.16;4981904;28;20032;-33
2022/07/02 08:07:57;;;;;;;1.55;0.47;;;;;;;-148.56;100.00;61375.16;4981817;28;20033;-30
2022/07/02 08:10:22;;;;;;;2.45;0.60;;;;;;;-148.56;100.00;61375.16;4985123;28;20065;-31
2022/07/02 08:12:51;;;;;;;1.02;0.60;;;;;;;-148.56;100.00;61375.16;4982455;28;20038;-29
2022/07/02 08:15:16;;;;;;;4.13;0.82;;;;;;;-148.56;100.00;61375.16;4981271;28;20758;-30
2022/07/02 08:17:42;;;;;;;4.25;0.90;;;;;;;-148.56;100.00;61375.16;4984636;28;20041;-31
2022/07/02 08:20:08;;;;;;;1.60;0.70;;;;;;;-148.56;100.00;61375.16;4982931;28;20547;-31
2022/07/02 08:22:34;;;;;;;2.55;0.68;;;;;;;-148.56;100.00;61375.16;4982302;28;20037;-38
2022/07/02 08:24:59;;;;;;;0.75;0.70;;;;;;;-148.56;100.00;61375.16;4982393;28;20648;-31
2022/07/02 08:27:24;;;;;;;0.88;0.60;;;;;;;-148.56;100.00;61375.16;4984389;28;20095;-31
2022/07/02 08:29:51;;;;;;;0.98;0.40;;;;;;;-148.56;100.00;61375.16;4983558;28;20983;-31
2022/07/02 08:32:17;;;;;;;7.38;0.80;;;;;;;-148.56;100.00;61375.16;4980449;28;20886;-30
2022/07/02 08:34:42;;;;;;;3.38;0.50;;;;;;;-148.56;100.00;61375.16;4979255;28;20737;-32
2022/07/02 08:37:08;;;;;;;1.60;0.60;;;;;;;-148.56;100.00;61375.16;4981323;28;20112;-32
2022/07/02 08:39:33;;;;;;;2.63;0.80;;;;;;;-148.56;100.00;61375.16;4984612;28;20049;-29
2022/07/02 08:41:59;;;;;;;1.50;0.70;;;;;;;-148.56;100.00;61375.16;4987671;28;20026;-31
2022/07/02 08:44:25;;;;;;;3.45;0.70;;;;;;;-148.56;100.00;61375.16;4975230;28;20189;-32
2022/07/02 08:46:50;;;;;;;3.00;0.68;;;;;;;-148.56;100.00;61375.16;4983659;28;20138;-31
2022/07/02 08:49:19;;;;;;;3.05;0.80;;;;;;;-148.56;100.00;61375.16;4982334;28;20160;-33
2022/07/02 08:51:57;;;;;;;5.22;0.98;;;;;;;-148.56;100.00;61375.16;4978698;28;20078;-32
2022/07/02 08:54:22;;;;;;;1.55;0.65;;;;;;;-148.56;100.00;61375.16;4985165;28;20029;-32
2022/07/02 08:56:50;;;;;;;3.90;1.00;;;;;;;-148.56;100.00;61375.16;4989405;28;20237;-30
2022/07/02 08:59:15;;;;;;;0.73;0.60;;;;;;;-148.56;100.00;61375.16;4986194;28;20736;-32
2022/07/02 09:01:41;;;;;;;3.45;0.70;;;;;;;-148.56;100.00;61375.16;5001128;28;20044;-34
2022/07/02 09:04:06;;;;;;;3.67;0.70;;;;;;;-148.56;100.00;61375.16;5007798;28;20957;-29
2022/07/02 09:06:32;;;;;;;8.05;1.00;;;;;;;-148.56;100.00;61375.16;5025817;28;20028;-30
2022/07/02 09:08:58;;;;;;;8.05;0.88;;;;;;;-148.56;100.00;61375.16;4999270;28;20577;-32
2022/07/02 09:11:23;;;;;;;1.42;0.80;;;;;;;-148.56;100.00;61375.16;5025694;28;20493;-30
2022/07/02 09:13:49;;;;;;;2.78;0.70;;;;;;;-148.56;100.00;61375.16;5019375;28;20044;-32
2022/07/02 09:16:14;;;;;;;2.03;0.80;;;;;;;-148.56;100.00;61375.16;4985120;28;20029;-30
2022/07/02 09:18:40;;;;;;;6.00;0.90;;;;;;;-148.56;100.00;61375.16;4995322;28;20049;-30
2022/07/02 09:21:05;;;;;;;2.40;1.05;;;;;;;-148.56;100.00;61375.16;5012693;28;20761;-30
2022/07/02 09:23:31;;;;;;;6.07;1.88;;;;;;;-148.56;100.00;61375.16;5008667;28;20028;-40
2022/07/02 09:25:56;;;;;;;10.00;2.85;;;;;;;-148.56;100.00;61375.16;5013179;28;20897;-33
2022/07/02 09:28:21;;;;;;;18.63;3.75;;;;;;;-148.56;100.00;61375.16;5012692;28;20562;-32
2022/07/02 09:30:47;;;;;;;14.40;4.30;;;;;;;-148.56;100.00;61375.16;5023857;28;20028;-33
2022/07/02 09:33:30;;;;;;;14.20;4.70;;;;;;;-148.56;100.00;61375.16;5021132;28;20145;-30
2022/07/02 09:35:57;;;;;;;15.38;5.07;;;;;;;-148.56;100.00;61375.16;5013892;28;20941;-33
2022/07/02 09:38:22;;;;;;;17.30;5.65;;;;;;;-148.56;100.00;61375.16;5031270;28;20047;-30
2022/07/02 09:40:54;;;;;;;15.00;5.05;;;;;;;-148.56;100.00;61375.16;5028268;28;20035;-30
2022/07/02 09:43:38;;;;;;;13.75;4.25;;;;;;;-148.56;100.00;61375.16;5016364;28;20067;-28
2022/07/02 09:46:19;;;;;;;15.35;4.85;;;;;;;-148.56;100.00;61375.16;5012907;28;20496;-29
2022/07/02 09:48:44;;;;;;;10.85;4.70;;;;;;;-148.56;100.00;61375.16;5018403;28;20036;-32
2022/07/02 09:51:10;;;;;;;16.88;4.47;;;;;;;-148.56;100.00;61375.16;5023951;28;20067;-34
2022/07/02 09:53:46;;;;;;;14.65;4.80;;;;;;;-148.56;100.00;61375.16;5033510;28;20476;-29
2022/07/02 09:56:11;;;;;;;11.20;4.25;;;;;;;-148.56;100.00;61375.16;5017738;28;20025;-30
2022/07/02 09:58:37;;;;;;;15.88;4.50;;;;;;;-148.56;100.00;61375.16;5029425;28;21062;-31
2022/07/02 10:01:02;;;;;;;11.75;3.97;;;;;;;-148.56;100.00;61375.16;5047142;28;20035;-30
2022/07/02 10:03:28;;;;;;;13.77;4.57;;;;;;;-148.56;100.00;61375.16;5046418;28;20044;-33
2022/07/02 10:05:54;;;;;;;12.52;4.13;;;;;;;-148.56;100.00;61375.16;5044477;28;20116;-33
2022/07/02 10:08:19;;;;;;;10.00;4.07;;;;;;;-148.56;100.00;61375.16;5045377;28;20741;-32
2022/07/02 10:10:45;;;;;;;9.93;4.15;;;;;;;-148.56;100.00;61375.16;5024820;28;20841;-30
2022/07/02 10:13:12;;;;;;;10.80;3.95;;;;;;;-148.56;100.00;61375.16;5044277;28;20028;-31
2022/07/02 10:16:02;;;;;;;10.40;3.78;;;;;;;-148.56;100.00;61375.16;5045111;28;20592;-33
2022/07/02 10:18:27;;;;;;;7.78;3.15;;;;;;;-148.56;100.00;61375.16;5027817;28;20029;-32
2022/07/02 10:20:56;;;;;;;11.68;3.90;;;;;;;-148.56;100.00;61375.16;5015860;28;20024;-30
2022/07/02 10:23:22;;;;;;;8.90;3.50;;;;;;;-148.56;100.00;61375.16;5043165;28;20028;-29
2022/07/02 10:25:48;;;;;;;9.23;3.47;;;;;;;-148.56;100.00;61375.16;5045848;28;20063;-30
2022/07/02 10:28:13;;;;;;;9.30;3.50;;;;;;;-148.56;100.00;61375.16;5030517;28;20021;-30
2022/07/02 10:30:39;;;;;;;8.75;2.90;;;;;;;-148.56;100.00;61375.16;5041978;28;21606;-33
2022/07/02 10:33:33;;;;;;;7.82;3.28;;;;;;;-148.56;100.00;61375.16;5021684;28;20530;-32
2022/07/02 10:35:59;;;;;;;9.18;3.35;;;;;;;-148.56;100.00;61375.16;5032500;28;20777;-30
2022/07/02 10:38:28;;;;;;;9.60;3.42;;;;;;;-148.56;100.00;61375.16;5040529;28;20033;-31
2022/07/02 10:40:54;;;;;;;7.93;3.10;;;;;;;-148.56;100.00;61375.16;5035186;28;20029;-29
2022/07/02 10:43:19;;;;;;;11.35;3.50;;;;;;;-148.56;100.00;61375.16;5035759;28;20031;-33
2022/07/02 10:45:45;;;;;;;7.07;2.90;;;;;;;-148.56;100.00;61375.16;5039984;28;20085;-30
2022/07/02 10:48:12;;;;;;;6.43;2.75;;;;;;;-148.56;100.00;61375.16;5042135;28;20434;-33
2022/07/02 10:50:45;;;;;;;6.90;3.28;;;;;;;-148.56;100.00;61375.16;5016497;28;20036;-30
2022/07/02 10:53:17;;;;;;;9.32;3.22;;;;;;;-148.56;100.00;61375.16;4995575;28;20090;-40
2022/07/02 10:55:58;;;;;;;8.88;3.38;;;;;;;-148.56;100.00;61375.16;4999341;28;20049;-32
2022/07/02 10:58:24;;;;;;;13.57;2.70;;;;;;;-148.56;100.00;61375.16;5005112;28;20029;-29
2022/07/02 11:00:49;;;;;;;7.05;2.95;;;;;;;-148.56;100.00;61375.16;4992099;28;20440;-38
2022/07/02 11:03:25;;;;;;;12.68;3.22;;;;;;;-148.56;100.00;61375.16;4993426;28;20123;-34
2022/07/02 11:06:03;;;;;;;8.73;3.10;;;;;;;-148.56;100.00;61375.16;5009246;28;20116;-33
2022/07/02 11:08:43;;;;;;;8.15;3.00;;;;;;;-148.56;100.00;61375.16;5011264;28;20904;-37
2022/07/02 11:11:09;;;;;;;6.13;2.67;;;;;;;-148.56;100.00;61375.16;5011160;28;20041;-32